sensor_id;sensor_type;location;lat;lon;timestamp;P1;durP1;ratioP1;P2;durP2;ratioP2
64959;SDS011;51487;52.266;10.542;2024-03-08T00:00:08;19.98;;;12.30;;
64959;SDS011;51487;52.266;10.542;2024-03-08T00:02:37;22.25;;;13.35;;
64959;SDS011;51487;52.266;10.542;2024-03-08T00:05:04;21.40;;;14.02;;
64959;SDS011;51487;52.266;10.542;2024-03-08T00:07:40;19.08;;;12.63;;
64959;SDS011;51487;52.266;10.542;2024-03-08T00:12:43;19.17;;;13.20;;
64959;SDS011;51487;52.266;10.542;2024-03-08T00:15:10;18.95;;;12.45;;
64959;SDS011;51487;52.266;10.542;2024-03-08T00:17:39;22.60;;;14.07;;
64959;SDS011;51487;52.266;10.542;2024-03-08T00:20:08;19.75;;;12.55;;
64959;SDS011;51487;52.266;10.542;2024-03-08T00:22:34;21.15;;;13.18;;
64959;SDS011;51487;52.266;10.542;2024-03-08T00:25:01;20.88;;;13.80;;
64959;SDS011;51487;52.266;10.542;2024-03-08T00:27:28;22.80;;;14.38;;
64959;SDS011;51487;52.266;10.542;2024-03-08T00:29:55;21.55;;;13.23;;
64959;SDS011;51487;52.266;10.542;2024-03-08T00:32:21;21.70;;;13.85;;
64959;SDS011;51487;52.266;10.542;2024-03-08T00:34:49;22.15;;;13.65;;
64959;SDS011;51487;52.266;10.542;2024-03-08T00:37:16;22.35;;;14.10;;
64959;SDS011;51487;52.266;10.542;2024-03-08T00:39:42;20.67;;;13.48;;
64959;SDS011;51487;52.266;10.542;2024-03-08T00:42:08;21.02;;;14.15;;
64959;SDS011;51487;52.266;10.542;2024-03-08T00:44:34;25.40;;;14.77;;
64959;SDS011;51487;52.266;10.542;2024-03-08T00:46:59;21.38;;;14.07;;
64959;SDS011;51487;52.266;10.542;2024-03-08T00:49:25;24.23;;;13.57;;
64959;SDS011;51487;52.266;10.542;2024-03-08T00:51:50;20.38;;;13.77;;
64959;SDS011;51487;52.266;10.542;2024-03-08T00:54:16;20.58;;;13.73;;
64959;SDS011;51487;52.266;10.542;2024-03-08T00:56:42;20.42;;;13.25;;
64959;SDS011;51487;52.266;10.542;2024-03-08T00:59:07;18.90;;;13.48;;
64959;SDS011;51487;52.266;10.542;2024-03-08T01:01:33;20.15;;;13.73;;
64959;SDS011;51487;52.266;10.542;2024-03-08T01:03:58;20.85;;;12.93;;
64959;SDS011;51487;52.266;10.542;2024-03-08T01:06:24;21.63;;;13.68;;
64959;SDS011;51487;52.266;10.542;2024-03-08T01:08:49;22.95;;;14.63;;
64959;SDS011;51487;52.266;10.542;2024-03-08T01:11:17;21.48;;;13.77;;
64959;SDS011;51487;52.266;10.542;2024-03-08T01:13:43;21.60;;;13.43;;
64959;SDS011;51487;52.266;10.542;2024-03-08T01:16:08;20.83;;;13.93;;
64959;SDS011;51487;52.266;10.542;2024-03-08T01:18:35;19.27;;;13.40;;
64959;SDS011;51487;52.266;10.542;2024-03-08T01:21:00;21.70;;;14.52;;
64959;SDS011;51487;52.266;10.542;2024-03-08T01:23:26;21.48;;;13.80;;
64959;SDS011;51487;52.266;10.542;2024-03-08T01:25:51;20.15;;;14.23;;
64959;SDS011;51487;52.266;10.542;2024-03-08T01:28:22;20.60;;;13.85;;
64959;SDS011;51487;52.266;10.542;2024-03-08T01:30:49;21.33;;;14.32;;
64959;SDS011;51487;52.266;10.542;2024-03-08T01:33:20;21.05;;;13.32;;
64959;SDS011;51487;52.266;10.542;2024-03-08T01:35:51;19.55;;;13.00;;
64959;SDS011;51487;52.266;10.542;2024-03-08T01:38:20;21.08;;;14.05;;
64959;SDS011;51487;52.266;10.542;2024-03-08T01:40:49;22.05;;;13.65;;
64959;SDS011;51487;52.266;10.542;2024-03-08T01:43:17;25.40;;;14.52;;
64959;SDS011;51487;52.266;10.542;2024-03-08T01:45:48;21.25;;;14.02;;
64959;SDS011;51487;52.266;10.542;2024-03-08T01:48:17;22.00;;;13.77;;
64959;SDS011;51487;52.266;10.542;2024-03-08T01:50:44;24.08;;;15.50;;
64959;SDS011;51487;52.266;10.542;2024-03-08T01:53:11;20.13;;;13.18;;
64959;SDS011;51487;52.266;10.542;2024-03-08T01:55:37;22.73;;;14.73;;
64959;SDS011;51487;52.266;10.542;2024-03-08T01:58:04;24.35;;;15.80;;
64959;SDS011;51487;52.266;10.542;2024-03-08T02:00:31;23.95;;;14.35;;
64959;SDS011;51487;52.266;10.542;2024-03-08T02:02:59;20.85;;;14.23;;
64959;SDS011;51487;52.266;10.542;2024-03-08T02:05:25;21.55;;;13.85;;
64959;SDS011;51487;52.266;10.542;2024-03-08T02:07:51;23.23;;;15.25;;
64959;SDS011;51487;52.266;10.542;2024-03-08T02:10:16;24.65;;;14.90;;
64959;SDS011;51487;52.266;10.542;2024-03-08T02:12:43;24.42;;;14.02;;
64959;SDS011;51487;52.266;10.542;2024-03-08T02:15:09;22.58;;;13.85;;
64959;SDS011;51487;52.266;10.542;2024-03-08T02:17:35;23.75;;;15.50;;
64959;SDS011;51487;52.266;10.542;2024-03-08T02:20:01;22.13;;;14.57;;
64959;SDS011;51487;52.266;10.542;2024-03-08T02:22:28;21.75;;;14.20;;
64959;SDS011;51487;52.266;10.542;2024-03-08T02:24:55;21.77;;;14.75;;
64959;SDS011;51487;52.266;10.542;2024-03-08T02:27:25;22.98;;;14.82;;
64959;SDS011;51487;52.266;10.542;2024-03-08T02:29:52;22.52;;;14.95;;
64959;SDS011;51487;52.266;10.542;2024-03-08T02:32:21;21.60;;;15.20;;
64959;SDS011;51487;52.266;10.542;2024-03-08T02:34:47;24.73;;;15.32;;
64959;SDS011;51487;52.266;10.542;2024-03-08T02:37:14;22.10;;;14.88;;
64959;SDS011;51487;52.266;10.542;2024-03-08T02:39:40;26.10;;;15.90;;
64959;SDS011;51487;52.266;10.542;2024-03-08T02:42:06;22.20;;;15.45;;
64959;SDS011;51487;52.266;10.542;2024-03-08T02:44:32;24.17;;;14.23;;
64959;SDS011;51487;52.266;10.542;2024-03-08T02:47:01;21.90;;;14.13;;
64959;SDS011;51487;52.266;10.542;2024-03-08T02:49:27;23.65;;;15.35;;
64959;SDS011;51487;52.266;10.542;2024-03-08T02:51:53;22.75;;;15.15;;
64959;SDS011;51487;52.266;10.542;2024-03-08T02:54:19;22.38;;;16.30;;
64959;SDS011;51487;52.266;10.542;2024-03-08T02:56:45;22.05;;;14.50;;
64959;SDS011;51487;52.266;10.542;2024-03-08T02:59:16;25.60;;;14.63;;
64959;SDS011;51487;52.266;10.542;2024-03-08T03:01:42;21.10;;;14.93;;
64959;SDS011;51487;52.266;10.542;2024-03-08T03:04:08;21.27;;;13.68;;
64959;SDS011;51487;52.266;10.542;2024-03-08T03:06:34;21.98;;;14.88;;
64959;SDS011;51487;52.266;10.542;2024-03-08T03:09:00;22.92;;;14.88;;
64959;SDS011;51487;52.266;10.542;2024-03-08T03:11:26;28.15;;;14.23;;
64959;SDS011;51487;52.266;10.542;2024-03-08T03:13:52;21.85;;;14.63;;
64959;SDS011;51487;52.266;10.542;2024-03-08T03:16:18;24.17;;;15.13;;
64959;SDS011;51487;52.266;10.542;2024-03-08T03:18:45;24.90;;;14.10;;
64959;SDS011;51487;52.266;10.542;2024-03-08T03:21:11;23.60;;;14.85;;
64959;SDS011;51487;52.266;10.542;2024-03-08T03:23:41;28.40;;;15.88;;
64959;SDS011;51487;52.266;10.542;2024-03-08T03:26:09;20.10;;;14.77;;
64959;SDS011;51487;52.266;10.542;2024-03-08T03:28:38;27.10;;;15.48;;
64959;SDS011;51487;52.266;10.542;2024-03-08T03:31:08;21.40;;;14.68;;
64959;SDS011;51487;52.266;10.542;2024-03-08T03:33:39;21.20;;;14.82;;
64959;SDS011;51487;52.266;10.542;2024-03-08T03:36:05;26.20;;;14.55;;
64959;SDS011;51487;52.266;10.542;2024-03-08T03:38:31;23.30;;;14.95;;
64959;SDS011;51487;52.266;10.542;2024-03-08T03:40:56;21.55;;;15.18;;
64959;SDS011;51487;52.266;10.542;2024-03-08T03:43:22;23.30;;;15.82;;
64959;SDS011;51487;52.266;10.542;2024-03-08T03:45:48;25.83;;;15.65;;
64959;SDS011;51487;52.266;10.542;2024-03-08T03:48:14;23.90;;;14.93;;
64959;SDS011;51487;52.266;10.542;2024-03-08T03:50:40;25.23;;;15.60;;
64959;SDS011;51487;52.266;10.542;2024-03-08T03:53:06;24.63;;;15.18;;
64959;SDS011;51487;52.266;10.542;2024-03-08T03:55:34;23.75;;;15.38;;
64959;SDS011;51487;52.266;10.542;2024-03-08T03:58:01;25.25;;;16.15;;
64959;SDS011;51487;52.266;10.542;2024-03-08T04:00:27;22.63;;;15.15;;
64959;SDS011;51487;52.266;10.542;2024-03-08T04:02:53;22.48;;;15.35;;
64959;SDS011;51487;52.266;10.542;2024-03-08T04:05:25;28.00;;;14.80;;
64959;SDS011;51487;52.266;10.542;2024-03-08T04:07:51;24.05;;;15.98;;
64959;SDS011;51487;52.266;10.542;2024-03-08T04:10:16;23.65;;;15.68;;
64959;SDS011;51487;52.266;10.542;2024-03-08T04:12:42;22.63;;;15.43;;
64959;SDS011;51487;52.266;10.542;2024-03-08T04:15:07;23.45;;;15.15;;
64959;SDS011;51487;52.266;10.542;2024-03-08T04:17:35;22.77;;;14.98;;
64959;SDS011;51487;52.266;10.542;2024-03-08T04:20:02;28.33;;;15.90;;
64959;SDS011;51487;52.266;10.542;2024-03-08T04:22:34;22.63;;;16.02;;
64959;SDS011;51487;52.266;10.542;2024-03-08T04:25:04;22.20;;;14.93;;
64959;SDS011;51487;52.266;10.542;2024-03-08T04:27:31;22.48;;;15.68;;
64959;SDS011;51487;52.266;10.542;2024-03-08T04:30:00;20.58;;;15.05;;
64959;SDS011;51487;52.266;10.542;2024-03-08T04:32:27;23.55;;;15.20;;
64959;SDS011;51487;52.266;10.542;2024-03-08T04:34:55;22.73;;;15.95;;
64959;SDS011;51487;52.266;10.542;2024-03-08T04:37:21;22.90;;;15.50;;
64959;SDS011;51487;52.266;10.542;2024-03-08T04:39:47;22.08;;;16.05;;
64959;SDS011;51487;52.266;10.542;2024-03-08T04:42:13;23.35;;;14.90;;
64959;SDS011;51487;52.266;10.542;2024-03-08T04:44:40;22.35;;;15.43;;
64959;SDS011;51487;52.266;10.542;2024-03-08T04:47:06;24.45;;;15.50;;
64959;SDS011;51487;52.266;10.542;2024-03-08T04:49:32;27.95;;;16.77;;
64959;SDS011;51487;52.266;10.542;2024-03-08T04:52:04;25.73;;;16.02;;
64959;SDS011;51487;52.266;10.542;2024-03-08T04:54:31;23.25;;;16.33;;
64959;SDS011;51487;52.266;10.542;2024-03-08T04:56:58;22.65;;;15.90;;
64959;SDS011;51487;52.266;10.542;2024-03-08T04:59:27;24.60;;;17.25;;
64959;SDS011;51487;52.266;10.542;2024-03-08T05:01:53;24.05;;;16.63;;
64959;SDS011;51487;52.266;10.542;2024-03-08T05:04:18;22.52;;;15.63;;
64959;SDS011;51487;52.266;10.542;2024-03-08T05:06:44;28.30;;;16.45;;
64959;SDS011;51487;52.266;10.542;2024-03-08T05:09:09;22.85;;;16.02;;
64959;SDS011;51487;52.266;10.542;2024-03-08T05:11:44;24.58;;;15.35;;
64959;SDS011;51487;52.266;10.542;2024-03-08T05:14:11;24.42;;;16.35;;
64959;SDS011;51487;52.266;10.542;2024-03-08T05:16:44;22.15;;;15.90;;
64959;SDS011;51487;52.266;10.542;2024-03-08T05:19:13;21.27;;;15.55;;
64959;SDS011;51487;52.266;10.542;2024-03-08T05:21:46;23.00;;;15.82;;
64959;SDS011;51487;52.266;10.542;2024-03-08T05:24:13;23.35;;;15.02;;
64959;SDS011;51487;52.266;10.542;2024-03-08T05:26:39;24.67;;;16.55;;
64959;SDS011;51487;52.266;10.542;2024-03-08T05:29:05;25.55;;;16.20;;
64959;SDS011;51487;52.266;10.542;2024-03-08T05:31:32;24.67;;;15.90;;
64959;SDS011;51487;52.266;10.542;2024-03-08T05:34:12;23.63;;;16.15;;
64959;SDS011;51487;52.266;10.542;2024-03-08T05:36:39;23.63;;;15.70;;
64959;SDS011;51487;52.266;10.542;2024-03-08T05:39:12;24.27;;;16.83;;
64959;SDS011;51487;52.266;10.542;2024-03-08T05:41:38;25.80;;;16.25;;
64959;SDS011;51487;52.266;10.542;2024-03-08T05:44:05;25.45;;;16.65;;
64959;SDS011;51487;52.266;10.542;2024-03-08T05:46:31;22.63;;;16.55;;
64959;SDS011;51487;52.266;10.542;2024-03-08T05:48:57;25.50;;;15.60;;
64959;SDS011;51487;52.266;10.542;2024-03-08T05:51:24;25.80;;;16.38;;
64959;SDS011;51487;52.266;10.542;2024-03-08T05:53:52;24.73;;;17.17;;
64959;SDS011;51487;52.266;10.542;2024-03-08T05:56:18;25.08;;;16.33;;
64959;SDS011;51487;52.266;10.542;2024-03-08T05:58:44;28.05;;;16.30;;
64959;SDS011;51487;52.266;10.542;2024-03-08T06:01:10;26.50;;;16.58;;
64959;SDS011;51487;52.266;10.542;2024-03-08T06:03:37;23.73;;;16.25;;
64959;SDS011;51487;52.266;10.542;2024-03-08T06:06:11;22.23;;;16.05;;
64959;SDS011;51487;52.266;10.542;2024-03-08T06:08:38;23.45;;;16.02;;
64959;SDS011;51487;52.266;10.542;2024-03-08T06:11:03;21.23;;;15.10;;
64959;SDS011;51487;52.266;10.542;2024-03-08T06:13:31;21.75;;;15.25;;
64959;SDS011;51487;52.266;10.542;2024-03-08T06:15:59;25.00;;;16.40;;
64959;SDS011;51487;52.266;10.542;2024-03-08T06:18:29;26.40;;;16.00;;
64959;SDS011;51487;52.266;10.542;2024-03-08T06:20:57;27.17;;;16.20;;
64959;SDS011;51487;52.266;10.542;2024-03-08T06:23:23;24.00;;;16.50;;
64959;SDS011;51487;52.266;10.542;2024-03-08T06:25:48;24.30;;;16.58;;
64959;SDS011;51487;52.266;10.542;2024-03-08T06:28:14;23.00;;;16.05;;
64959;SDS011;51487;52.266;10.542;2024-03-08T06:30:40;23.25;;;16.02;;
64959;SDS011;51487;52.266;10.542;2024-03-08T06:33:06;24.15;;;15.10;;
64959;SDS011;51487;52.266;10.542;2024-03-08T06:35:35;24.73;;;15.93;;
64959;SDS011;51487;52.266;10.542;2024-03-08T06:38:03;26.63;;;16.45;;
64959;SDS011;51487;52.266;10.542;2024-03-08T06:40:29;24.88;;;15.50;;
64959;SDS011;51487;52.266;10.542;2024-03-08T06:42:55;23.05;;;16.52;;
64959;SDS011;51487;52.266;10.542;2024-03-08T06:45:20;21.48;;;15.32;;
64959;SDS011;51487;52.266;10.542;2024-03-08T06:47:48;21.40;;;15.48;;
64959;SDS011;51487;52.266;10.542;2024-03-08T06:50:14;22.58;;;16.10;;
64959;SDS011;51487;52.266;10.542;2024-03-08T06:52:40;24.00;;;15.40;;
64959;SDS011;51487;52.266;10.542;2024-03-08T06:55:07;24.20;;;15.98;;
64959;SDS011;51487;52.266;10.542;2024-03-08T06:57:40;25.13;;;17.17;;
64959;SDS011;51487;52.266;10.542;2024-03-08T07:00:06;24.38;;;15.30;;
64959;SDS011;51487;52.266;10.542;2024-03-08T07:02:37;22.58;;;15.82;;
64959;SDS011;51487;52.266;10.542;2024-03-08T07:05:04;27.75;;;16.73;;
64959;SDS011;51487;52.266;10.542;2024-03-08T07:07:31;24.83;;;16.55;;
64959;SDS011;51487;52.266;10.542;2024-03-08T07:09:57;21.55;;;15.25;;
64959;SDS011;51487;52.266;10.542;2024-03-08T07:12:22;23.45;;;15.88;;
64959;SDS011;51487;52.266;10.542;2024-03-08T07:14:48;25.38;;;17.10;;
64959;SDS011;51487;52.266;10.542;2024-03-08T07:17:14;26.52;;;16.35;;
64959;SDS011;51487;52.266;10.542;2024-03-08T07:19:41;20.80;;;16.73;;
64959;SDS011;51487;52.266;10.542;2024-03-08T07:22:07;25.77;;;15.88;;
64959;SDS011;51487;52.266;10.542;2024-03-08T07:24:36;24.83;;;16.13;;
64959;SDS011;51487;52.266;10.542;2024-03-08T07:27:02;24.25;;;16.45;;
64959;SDS011;51487;52.266;10.542;2024-03-08T07:29:30;24.52;;;16.58;;
64959;SDS011;51487;52.266;10.542;2024-03-08T07:31:56;25.33;;;15.90;;
64959;SDS011;51487;52.266;10.542;2024-03-08T07:34:44;23.05;;;15.55;;
64959;SDS011;51487;52.266;10.542;2024-03-08T07:37:09;24.30;;;15.68;;
64959;SDS011;51487;52.266;10.542;2024-03-08T07:39:36;21.25;;;15.50;;
64959;SDS011;51487;52.266;10.542;2024-03-08T07:42:04;26.20;;;16.90;;
64959;SDS011;51487;52.266;10.542;2024-03-08T07:44:30;22.10;;;16.10;;
64959;SDS011;51487;52.266;10.542;2024-03-08T07:46:56;23.73;;;15.88;;
64959;SDS011;51487;52.266;10.542;2024-03-08T07:49:22;25.17;;;17.45;;
64959;SDS011;51487;52.266;10.542;2024-03-08T07:51:47;24.17;;;16.55;;
64959;SDS011;51487;52.266;10.542;2024-03-08T07:54:14;23.23;;;16.88;;
64959;SDS011;51487;52.266;10.542;2024-03-08T07:56:40;22.98;;;16.30;;
64959;SDS011;51487;52.266;10.542;2024-03-08T07:59:05;23.77;;;16.70;;
64959;SDS011;51487;52.266;10.542;2024-03-08T08:01:31;21.67;;;16.08;;
64959;SDS011;51487;52.266;10.542;2024-03-08T08:03:58;24.20;;;16.70;;
64959;SDS011;51487;52.266;10.542;2024-03-08T08:06:26;23.58;;;16.10;;
64959;SDS011;51487;52.266;10.542;2024-03-08T08:08:52;21.55;;;15.63;;
64959;SDS011;51487;52.266;10.542;2024-03-08T08:11:18;26.17;;;16.67;;
64959;SDS011;51487;52.266;10.542;2024-03-08T08:13:45;22.80;;;16.83;;
64959;SDS011;51487;52.266;10.542;2024-03-08T08:16:11;21.42;;;15.68;;
64959;SDS011;51487;52.266;10.542;2024-03-08T08:18:37;26.58;;;17.10;;
64959;SDS011;51487;52.266;10.542;2024-03-08T08:21:04;24.65;;;16.15;;
64959;SDS011;51487;52.266;10.542;2024-03-08T08:23:31;25.88;;;16.23;;
64959;SDS011;51487;52.266;10.542;2024-03-08T08:25:58;23.27;;;16.13;;
64959;SDS011;51487;52.266;10.542;2024-03-08T08:28:24;21.10;;;16.63;;
64959;SDS011;51487;52.266;10.542;2024-03-08T08:30:49;23.27;;;14.95;;
64959;SDS011;51487;52.266;10.542;2024-03-08T08:33:15;22.80;;;15.63;;
64959;SDS011;51487;52.266;10.542;2024-03-08T08:35:41;23.75;;;16.42;;
64959;SDS011;51487;52.266;10.542;2024-03-08T08:38:07;24.00;;;16.40;;
64959;SDS011;51487;52.266;10.542;2024-03-08T08:40:34;23.50;;;16.52;;
64959;SDS011;51487;52.266;10.542;2024-03-08T08:43:03;22.08;;;16.05;;
64959;SDS011;51487;52.266;10.542;2024-03-08T08:45:29;27.77;;;16.20;;
64959;SDS011;51487;52.266;10.542;2024-03-08T08:47:56;23.40;;;17.55;;
64959;SDS011;51487;52.266;10.542;2024-03-08T08:50:22;20.00;;;15.75;;
64959;SDS011;51487;52.266;10.542;2024-03-08T08:52:48;25.77;;;16.33;;
64959;SDS011;51487;52.266;10.542;2024-03-08T08:55:14;22.27;;;15.73;;
64959;SDS011;51487;52.266;10.542;2024-03-08T08:57:41;20.00;;;15.85;;
64959;SDS011;51487;52.266;10.542;2024-03-08T09:00:07;23.85;;;15.88;;
64959;SDS011;51487;52.266;10.542;2024-03-08T09:02:35;22.30;;;15.60;;
64959;SDS011;51487;52.266;10.542;2024-03-08T09:05:02;22.45;;;15.55;;
64959;SDS011;51487;52.266;10.542;2024-03-08T09:07:28;23.75;;;16.77;;
64959;SDS011;51487;52.266;10.542;2024-03-08T09:09:54;25.42;;;16.50;;
64959;SDS011;51487;52.266;10.542;2024-03-08T09:12:23;25.88;;;17.13;;
64959;SDS011;51487;52.266;10.542;2024-03-08T09:14:49;22.20;;;16.20;;
64959;SDS011;51487;52.266;10.542;2024-03-08T09:17:15;24.92;;;16.58;;
64959;SDS011;51487;52.266;10.542;2024-03-08T09:19:48;24.63;;;16.48;;
64959;SDS011;51487;52.266;10.542;2024-03-08T09:22:15;26.17;;;17.10;;
64959;SDS011;51487;52.266;10.542;2024-03-08T09:24:40;25.38;;;17.30;;
64959;SDS011;51487;52.266;10.542;2024-03-08T09:27:08;26.35;;;17.38;;
64959;SDS011;51487;52.266;10.542;2024-03-08T09:29:35;24.48;;;16.40;;
64959;SDS011;51487;52.266;10.542;2024-03-08T09:32:01;25.20;;;17.92;;
64959;SDS011;51487;52.266;10.542;2024-03-08T09:34:27;23.95;;;17.67;;
64959;SDS011;51487;52.266;10.542;2024-03-08T09:36:52;25.55;;;17.63;;
64959;SDS011;51487;52.266;10.542;2024-03-08T09:39:18;24.40;;;17.42;;
64959;SDS011;51487;52.266;10.542;2024-03-08T09:41:46;24.25;;;17.38;;
64959;SDS011;51487;52.266;10.542;2024-03-08T09:44:13;24.50;;;16.48;;
64959;SDS011;51487;52.266;10.542;2024-03-08T09:46:39;23.02;;;17.63;;
64959;SDS011;51487;52.266;10.542;2024-03-08T09:49:06;23.02;;;16.77;;
64959;SDS011;51487;52.266;10.542;2024-03-08T09:51:33;23.05;;;16.50;;
64959;SDS011;51487;52.266;10.542;2024-03-08T09:54:05;23.02;;;17.45;;
64959;SDS011;51487;52.266;10.542;2024-03-08T09:56:32;27.05;;;18.23;;
64959;SDS011;51487;52.266;10.542;2024-03-08T09:59:01;24.33;;;17.58;;
64959;SDS011;51487;52.266;10.542;2024-03-08T10:01:27;25.40;;;18.20;;
64959;SDS011;51487;52.266;10.542;2024-03-08T10:03:52;24.27;;;17.08;;
64959;SDS011;51487;52.266;10.542;2024-03-08T10:06:22;25.08;;;17.98;;
64959;SDS011;51487;52.266;10.542;2024-03-08T10:08:48;25.90;;;17.77;;
64959;SDS011;51487;52.266;10.542;2024-03-08T10:11:16;30.77;;;18.88;;
64959;SDS011;51487;52.266;10.542;2024-03-08T10:13:44;25.70;;;18.38;;
64959;SDS011;51487;52.266;10.542;2024-03-08T10:16:12;27.00;;;18.75;;
64959;SDS011;51487;52.266;10.542;2024-03-08T10:18:38;25.67;;;19.98;;
64959;SDS011;51487;52.266;10.542;2024-03-08T10:21:09;24.33;;;18.80;;
64959;SDS011;51487;52.266;10.542;2024-03-08T10:23:36;28.75;;;18.50;;
64959;SDS011;51487;52.266;10.542;2024-03-08T10:26:14;26.52;;;18.63;;
64959;SDS011;51487;52.266;10.542;2024-03-08T10:28:46;30.63;;;19.30;;
64959;SDS011;51487;52.266;10.542;2024-03-08T10:31:17;27.15;;;17.98;;
64959;SDS011;51487;52.266;10.542;2024-03-08T10:33:44;27.08;;;18.05;;
64959;SDS011;51487;52.266;10.542;2024-03-08T10:36:15;25.75;;;17.27;;
64959;SDS011;51487;52.266;10.542;2024-03-08T10:38:42;24.17;;;17.83;;
64959;SDS011;51487;52.266;10.542;2024-03-08T10:41:12;22.77;;;17.08;;
64959;SDS011;51487;52.266;10.542;2024-03-08T10:49:54;22.65;;;17.13;;
64959;SDS011;51487;52.266;10.542;2024-03-08T10:52:33;23.58;;;16.45;;
64959;SDS011;51487;52.266;10.542;2024-03-08T10:55:00;25.00;;;16.48;;
64959;SDS011;51487;52.266;10.542;2024-03-08T10:57:27;23.67;;;17.80;;
64959;SDS011;51487;52.266;10.542;2024-03-08T10:59:53;21.77;;;15.90;;
64959;SDS011;51487;52.266;10.542;2024-03-08T11:02:20;23.45;;;16.77;;
64959;SDS011;51487;52.266;10.542;2024-03-08T11:04:49;24.13;;;17.40;;
64959;SDS011;51487;52.266;10.542;2024-03-08T11:07:16;27.73;;;17.75;;
64959;SDS011;51487;52.266;10.542;2024-03-08T11:09:45;22.40;;;15.88;;
64959;SDS011;51487;52.266;10.542;2024-03-08T11:14:47;22.50;;;16.73;;
64959;SDS011;51487;52.266;10.542;2024-03-08T11:17:20;25.80;;;17.38;;
64959;SDS011;51487;52.266;10.542;2024-03-08T11:19:52;24.05;;;17.13;;
64959;SDS011;51487;52.266;10.542;2024-03-08T11:22:22;22.83;;;16.90;;
64959;SDS011;51487;52.266;10.542;2024-03-08T11:25:03;22.95;;;16.38;;
64959;SDS011;51487;52.266;10.542;2024-03-08T11:27:35;23.23;;;16.08;;
64959;SDS011;51487;52.266;10.542;2024-03-08T11:30:04;22.85;;;15.90;;
64959;SDS011;51487;52.266;10.542;2024-03-08T11:32:43;26.50;;;16.40;;
64959;SDS011;51487;52.266;10.542;2024-03-08T11:35:21;21.63;;;16.17;;
64959;SDS011;51487;52.266;10.542;2024-03-08T11:37:50;24.05;;;16.55;;
64959;SDS011;51487;52.266;10.542;2024-03-08T11:40:15;22.80;;;16.13;;
64959;SDS011;51487;52.266;10.542;2024-03-08T11:42:45;24.08;;;16.65;;
64959;SDS011;51487;52.266;10.542;2024-03-08T11:45:16;22.20;;;15.55;;
64959;SDS011;51487;52.266;10.542;2024-03-08T11:47:46;21.58;;;15.00;;
64959;SDS011;51487;52.266;10.542;2024-03-08T11:50:15;21.38;;;16.20;;
64959;SDS011;51487;52.266;10.542;2024-03-08T11:52:41;22.50;;;15.43;;
64959;SDS011;51487;52.266;10.542;2024-03-08T11:55:08;20.65;;;14.43;;
64959;SDS011;51487;52.266;10.542;2024-03-08T11:57:34;19.00;;;14.30;;
64959;SDS011;51487;52.266;10.542;2024-03-08T12:00:01;20.55;;;14.27;;
64959;SDS011;51487;52.266;10.542;2024-03-08T12:02:33;17.48;;;14.15;;
64959;SDS011;51487;52.266;10.542;2024-03-08T12:05:02;18.67;;;13.73;;
64959;SDS011;51487;52.266;10.542;2024-03-08T12:07:29;18.33;;;13.52;;
64959;SDS011;51487;52.266;10.542;2024-03-08T12:12:46;26.45;;;13.90;;
64959;SDS011;51487;52.266;10.542;2024-03-08T12:15:21;19.70;;;12.95;;
64959;SDS011;51487;52.266;10.542;2024-03-08T12:17:52;19.17;;;13.65;;
64959;SDS011;51487;52.266;10.542;2024-03-08T12:20:24;18.83;;;13.70;;
64959;SDS011;51487;52.266;10.542;2024-03-08T12:22:54;21.25;;;12.80;;
64959;SDS011;51487;52.266;10.542;2024-03-08T12:25:27;18.33;;;12.95;;
64959;SDS011;51487;52.266;10.542;2024-03-08T12:27:56;18.00;;;13.05;;
64959;SDS011;51487;52.266;10.542;2024-03-08T12:30:26;17.33;;;12.65;;
64959;SDS011;51487;52.266;10.542;2024-03-08T12:32:59;20.92;;;13.35;;
64959;SDS011;51487;52.266;10.542;2024-03-08T12:35:26;17.50;;;12.90;;
64959;SDS011;51487;52.266;10.542;2024-03-08T12:37:56;20.02;;;14.05;;
64959;SDS011;51487;52.266;10.542;2024-03-08T12:40:29;17.95;;;13.35;;
64959;SDS011;51487;52.266;10.542;2024-03-08T12:42:57;17.38;;;12.23;;
64959;SDS011;51487;52.266;10.542;2024-03-08T12:45:24;18.80;;;13.93;;
64959;SDS011;51487;52.266;10.542;2024-03-08T12:47:53;18.77;;;13.50;;
64959;SDS011;51487;52.266;10.542;2024-03-08T12:50:23;20.00;;;13.00;;
64959;SDS011;51487;52.266;10.542;2024-03-08T12:52:51;16.45;;;12.52;;
64959;SDS011;51487;52.266;10.542;2024-03-08T12:55:18;16.52;;;12.50;;
64959;SDS011;51487;52.266;10.542;2024-03-08T12:57:44;18.48;;;12.15;;
64959;SDS011;51487;52.266;10.542;2024-03-08T13:00:10;16.23;;;12.80;;
64959;SDS011;51487;52.266;10.542;2024-03-08T13:02:44;16.80;;;12.23;;
64959;SDS011;51487;52.266;10.542;2024-03-08T13:05:14;17.27;;;11.48;;
64959;SDS011;51487;52.266;10.542;2024-03-08T13:07:43;17.95;;;11.60;;
64959;SDS011;51487;52.266;10.542;2024-03-08T13:10:11;16.30;;;12.15;;
64959;SDS011;51487;52.266;10.542;2024-03-08T13:12:39;17.35;;;12.05;;
64959;SDS011;51487;52.266;10.542;2024-03-08T13:15:07;16.15;;;12.02;;
64959;SDS011;51487;52.266;10.542;2024-03-08T13:17:36;16.42;;;11.70;;
64959;SDS011;51487;52.266;10.542;2024-03-08T13:20:02;20.25;;;12.65;;
64959;SDS011;51487;52.266;10.542;2024-03-08T13:22:30;20.92;;;12.60;;
64959;SDS011;51487;52.266;10.542;2024-03-08T13:24:55;15.85;;;12.65;;
64959;SDS011;51487;52.266;10.542;2024-03-08T13:27:21;20.58;;;13.98;;
64959;SDS011;51487;52.266;10.542;2024-03-08T13:29:50;17.88;;;12.55;;
64959;SDS011;51487;52.266;10.542;2024-03-08T13:32:16;21.65;;;13.32;;
64959;SDS011;51487;52.266;10.542;2024-03-08T13:34:45;17.65;;;12.73;;
64959;SDS011;51487;52.266;10.542;2024-03-08T13:37:12;18.17;;;13.15;;
64959;SDS011;51487;52.266;10.542;2024-03-08T13:39:39;17.73;;;13.15;;
64959;SDS011;51487;52.266;10.542;2024-03-08T13:42:11;17.45;;;13.43;;
64959;SDS011;51487;52.266;10.542;2024-03-08T13:44:47;17.00;;;12.60;;
64959;SDS011;51487;52.266;10.542;2024-03-08T13:47:18;17.67;;;13.52;;
64959;SDS011;51487;52.266;10.542;2024-03-08T13:49:44;20.00;;;14.07;;
64959;SDS011;51487;52.266;10.542;2024-03-08T13:52:10;21.08;;;14.75;;
64959;SDS011;51487;52.266;10.542;2024-03-08T13:54:37;18.25;;;14.07;;
64959;SDS011;51487;52.266;10.542;2024-03-08T13:57:03;18.27;;;13.27;;
64959;SDS011;51487;52.266;10.542;2024-03-08T13:59:30;18.20;;;13.25;;
64959;SDS011;51487;52.266;10.542;2024-03-08T14:01:58;18.27;;;13.55;;
64959;SDS011;51487;52.266;10.542;2024-03-08T14:04:30;18.80;;;13.00;;
64959;SDS011;51487;52.266;10.542;2024-03-08T14:06:55;22.52;;;14.13;;
64959;SDS011;51487;52.266;10.542;2024-03-08T14:09:28;17.60;;;13.70;;
64959;SDS011;51487;52.266;10.542;2024-03-08T14:11:54;18.38;;;13.73;;
64959;SDS011;51487;52.266;10.542;2024-03-08T14:14:23;16.67;;;13.30;;
64959;SDS011;51487;52.266;10.542;2024-03-08T14:16:50;16.52;;;12.45;;
64959;SDS011;51487;52.266;10.542;2024-03-08T14:19:22;18.98;;;12.98;;
64959;SDS011;51487;52.266;10.542;2024-03-08T14:21:48;16.55;;;12.23;;
64959;SDS011;51487;52.266;10.542;2024-03-08T14:24:16;17.15;;;12.70;;